Time;durP1;ratioP1;P1;durP2;ratioP2;P2;SDS_P1;SDS_P2;PMS_P1;PMS_P2;Temp;Humidity;BMP_temperature;BMP_pressure;BME280_temperature;BME280_humidity;BME280_pressure;Samples;Min_cycle;Max_cycle;Signal;HPM_P1;HPM_P2
2021/07/23 00:00:58;;;;;;;;;23.50;20.25;;;;;;;;5037939;28;48301;-82
2021/07/23 00:03:23;;;;;;;;;20.00;17.75;;;;;;;;5037397;28;47144;-82
2021/07/23 00:05:48;;;;;;;;;19.75;18.25;;;;;;;;5039224;28;46930;-83
2021/07/23 00:08:14;;;;;;;;;27.50;21.25;;;;;;;;5039353;28;47159;-82
2021/07/23 00:10:39;;;;;;;;;22.00;18.25;;;;;;;;5037368;28;47056;-83
2021/07/23 00:13:04;;;;;;;;;20.75;17.25;;;;;;;;5055721;28;46949;-83
2021/07/23 00:15:30;;;;;;;;;18.25;17.00;;;;;;;;5059074;28;47072;-82
2021/07/23 00:17:55;;;;;;;;;20.50;18.00;;;;;;;;5040972;28;46991;-82
2021/07/23 00:20:20;;;;;;;;;17.25;16.00;;;;;;;;5058881;28;46889;-82
2021/07/23 00:22:46;;;;;;;;;19.25;19.00;;;;;;;;5049015;28;47582;-82
2021/07/23 00:25:11;;;;;;;;;23.25;18.75;;;;;;;;5058937;28;46920;-82
2021/07/23 00:27:37;;;;;;;;;16.50;15.25;;;;;;;;5059055;28;47242;-82
2021/07/23 00:30:03;;;;;;;;;18.50;15.75;;;;;;;;5040563;28;47221;-82
2021/07/23 00:32:28;;;;;;;;;16.50;13.75;;;;;;;;5059028;28;47656;-83
2021/07/23 00:34:53;;;;;;;;;18.50;17.50;;;;;;;;5072075;28;47165;-83
2021/07/23 00:37:19;;;;;;;;;16.25;14.25;;;;;;;;5059171;28;46863;-83
2021/07/23 00:39:44;;;;;;;;;16.50;15.50;;;;;;;;5040321;28;47385;-83
2021/07/23 00:42:09;;;;;;;;;15.25;14.00;;;;;;;;5058605;28;46855;-83
2021/07/23 00:44:35;;;;;;;;;21.50;17.00;;;;;;;;5058594;28;46924;-82
2021/07/23 00:47:00;;;;;;;;;15.25;14.75;;;;;;;;5058940;28;46767;-82
2021/07/23 00:49:26;;;;;;;;;16.00;16.00;;;;;;;;5058179;28;46857;-83
2021/07/23 00:51:51;;;;;;;;;16.00;14.75;;;;;;;;5058599;28;47230;-83
2021/07/23 00:54:18;;;;;;;;;16.50;14.75;;;;;;;;5058472;28;46870;-83
2021/07/23 00:56:43;;;;;;;;;11.75;11.75;;;;;;;;5058817;28;47187;-83
2021/07/23 00:59:08;;;;;;;;;19.50;16.50;;;;;;;;5040027;28;49253;-83
2021/07/23 01:01:34;;;;;;;;;19.75;18.50;;;;;;;;5058381;28;46988;-83
2021/07/23 01:04:01;;;;;;;;;14.75;12.00;;;;;;;;5039966;28;47038;-83
2021/07/23 01:06:26;;;;;;;;;15.00;14.25;;;;;;;;5058467;28;46917;-82
2021/07/23 01:08:51;;;;;;;;;15.50;14.50;;;;;;;;5058156;28;47572;-82
2021/07/23 01:11:17;;;;;;;;;18.75;16.00;;;;;;;;5039871;28;47871;-82
2021/07/23 01:13:42;;;;;;;;;16.25;13.00;;;;;;;;5058163;28;46921;-82
2021/07/23 01:16:08;;;;;;;;;12.50;11.00;;;;;;;;5040246;28;47090;-82
2021/07/23 01:18:33;;;;;;;;;18.50;14.50;;;;;;;;5039606;28;48290;-82
2021/07/23 01:21:00;;;;;;;;;15.75;15.75;;;;;;;;5063343;28;46905;-82
2021/07/23 01:23:29;;;;;;;;;15.00;14.25;;;;;;;;5059991;28;46966;-82
2021/07/23 01:25:56;;;;;;;;;15.75;13.50;;;;;;;;5040245;28;47086;-82
2021/07/23 01:28:22;;;;;;;;;11.50;9.50;;;;;;;;5039709;28;48335;-82
2021/07/23 01:30:47;;;;;;;;;17.25;14.75;;;;;;;;5058194;28;47010;-82
2021/07/23 01:33:12;;;;;;;;;14.25;11.50;;;;;;;;5063179;28;46866;-82
2021/07/23 01:35:38;;;;;;;;;11.25;11.25;;;;;;;;5066398;28;46885;-82
2021/07/23 01:38:05;;;;;;;;;18.75;15.00;;;;;;;;5057779;28;47519;-82
2021/07/23 01:40:30;;;;;;;;;14.25;10.75;;;;;;;;5039745;28;48025;-82
2021/07/23 01:42:56;;;;;;;;;18.25;16.50;;;;;;;;5057679;28;46868;-82
2021/07/23 01:45:21;;;;;;;;;13.00;13.00;;;;;;;;5058222;28;47136;-82
2021/07/23 01:47:46;;;;;;;;;15.75;15.00;;;;;;;;5057315;28;47077;-82
2021/07/23 01:50:12;;;;;;;;;14.00;13.50;;;;;;;;5039625;28;47617;-82
2021/07/23 01:52:37;;;;;;;;;16.00;15.00;;;;;;;;5057783;28;46929;-82
2021/07/23 01:55:03;;;;;;;;;14.50;12.50;;;;;;;;5058062;28;47003;-83
2021/07/23 01:57:28;;;;;;;;;14.75;12.00;;;;;;;;5057412;28;46981;-83
2021/07/23 01:59:53;;;;;;;;;15.50;14.25;;;;;;;;5057834;28;46971;-83
2021/07/23 02:02:19;;;;;;;;;26.75;20.25;;;;;;;;5057629;28;46972;-83
2021/07/23 02:04:44;;;;;;;;;12.00;10.25;;;;;;;;5057441;28;47265;-83
2021/07/23 02:07:09;;;;;;;;;16.25;15.25;;;;;;;;5039251;28;48429;-83
2021/07/23 02:09:35;;;;;;;;;15.25;13.75;;;;;;;;5059685;28;47000;-82
2021/07/23 02:12:00;;;;;;;;;15.50;14.50;;;;;;;;5060854;28;47081;-82
2021/07/23 02:14:28;;;;;;;;;26.00;18.75;;;;;;;;5061067;28;46911;-82
2021/07/23 02:16:54;;;;;;;;;14.75;13.25;;;;;;;;5060866;28;46989;-82
2021/07/23 02:19:19;;;;;;;;;19.75;16.00;;;;;;;;5060802;28;46953;-81
2021/07/23 02:21:44;;;;;;;;;16.00;15.75;;;;;;;;5067979;28;46782;-81
2021/07/23 02:24:10;;;;;;;;;15.75;15.75;;;;;;;;5061059;28;46799;-82
2021/07/23 02:26:35;;;;;;;;;21.50;17.75;;;;;;;;5060800;28;47027;-82
2021/07/23 02:29:00;;;;;;;;;16.00;14.00;;;;;;;;5042570;28;47464;-82
2021/07/23 02:31:26;;;;;;;;;14.75;14.75;;;;;;;;5060746;28;46977;-83
2021/07/23 02:33:51;;;;;;;;;15.50;14.00;;;;;;;;5071569;27;46814;-83
2021/07/23 02:36:16;;;;;;;;;20.25;17.00;;;;;;;;5045096;28;48251;-83
2021/07/23 02:38:42;;;;;;;;;18.50;16.50;;;;;;;;5060642;28;47022;-83
2021/07/23 02:41:07;;;;;;;;;13.75;12.75;;;;;;;;5060673;28;47011;-83
2021/07/23 02:43:32;;;;;;;;;17.75;16.25;;;;;;;;5060506;28;46959;-83
2021/07/23 02:45:58;;;;;;;;;20.25;17.50;;;;;;;;5060239;28;47075;-83
2021/07/23 02:48:23;;;;;;;;;19.25;16.00;;;;;;;;5042029;28;47031;-83
2021/07/23 02:50:48;;;;;;;;;15.50;15.00;;;;;;;;5042235;28;46918;-83
2021/07/23 02:53:14;;;;;;;;;20.00;16.75;;;;;;;;5060635;28;46836;-83
2021/07/23 02:55:39;;;;;;;;;17.25;16.75;;;;;;;;5060302;28;48217;-83
2021/07/23 02:58:05;;;;;;;;;19.50;18.00;;;;;;;;5060331;28;46990;-83
2021/07/23 03:00:30;;;;;;;;;25.75;19.75;;;;;;;;5060435;28;47028;-83
2021/07/23 03:02:55;;;;;;;;;22.00;19.00;;;;;;;;5060223;28;47743;-83
2021/07/23 03:05:20;;;;;;;;;15.50;15.00;;;;;;;;5060063;28;47138;-83
2021/07/23 03:07:51;;;;;;;;;14.50;14.25;;;;;;;;5060241;28;46886;-83
2021/07/23 03:10:16;;;;;;;;;16.00;15.00;;;;;;;;5060213;28;47080;-83
2021/07/23 03:12:42;;;;;;;;;18.50;16.00;;;;;;;;5060090;28;47155;-83
2021/07/23 03:15:07;;;;;;;;;19.00;19.00;;;;;;;;5059807;28;47982;-83
2021/07/23 03:17:33;;;;;;;;;22.75;19.50;;;;;;;;5060154;28;47012;-83
2021/07/23 03:19:58;;;;;;;;;17.75;14.75;;;;;;;;5059103;28;46935;-83
2021/07/23 03:22:23;;;;;;;;;17.50;16.25;;;;;;;;5066211;28;47026;-83
2021/07/23 03:24:48;;;;;;;;;13.75;12.50;;;;;;;;5059678;28;47048;-83
2021/07/23 03:27:14;;;;;;;;;14.25;12.00;;;;;;;;5060078;28;46984;-83
2021/07/23 03:29:39;;;;;;;;;15.25;12.75;;;;;;;;5059797;28;47149;-83
2021/07/23 03:32:05;;;;;;;;;13.25;11.25;;;;;;;;5041822;28;47419;-83
2021/07/23 03:34:30;;;;;;;;;13.75;12.25;;;;;;;;5072763;27;48817;-82
2021/07/23 03:36:56;;;;;;;;;16.75;13.75;;;;;;;;5041804;28;46955;-83
2021/07/23 03:39:21;;;;;;;;;12.25;9.75;;;;;;;;5059808;28;46894;-82
2021/07/23 03:41:46;;;;;;;;;15.50;14.75;;;;;;;;5059969;28;47051;-83
2021/07/23 03:44:12;;;;;;;;;15.75;14.75;;;;;;;;5059500;28;47870;-83
2021/07/23 03:46:37;;;;;;;;;20.75;18.75;;;;;;;;5059690;28;46790;-83
2021/07/23 03:49:02;;;;;;;;;22.50;17.75;;;;;;;;5059396;28;47176;-83
2021/07/23 03:51:28;;;;;;;;;19.50;16.00;;;;;;;;5059907;28;46721;-83
2021/07/23 03:53:53;;;;;;;;;20.25;19.00;;;;;;;;5059277;28;46863;-82
2021/07/23 03:56:18;;;;;;;;;21.50;18.00;;;;;;;;5059676;28;46931;-82
2021/07/23 03:58:44;;;;;;;;;14.75;13.00;;;;;;;;5059297;28;46867;-81
2021/07/23 04:01:09;;;;;;;;;21.50;17.25;;;;;;;;5059707;28;46809;-81
2021/07/23 04:03:34;;;;;;;;;24.00;21.00;;;;;;;;5058777;28;46915;-81
2021/07/23 04:06:00;;;;;;;;;18.25;16.00;;;;;;;;5059296;28;46779;-81
2021/07/23 04:08:26;;;;;;;;;18.25;18.00;;;;;;;;5059322;28;46866;-81
2021/07/23 04:10:51;;;;;;;;;18.00;17.50;;;;;;;;5059558;28;47019;-81
2021/07/23 04:13:16;;;;;;;;;21.00;18.00;;;;;;;;5040432;28;49281;-82
2021/07/23 04:15:42;;;;;;;;;18.50;15.25;;;;;;;;5059082;28;46937;-81
2021/07/23 04:18:07;;;;;;;;;21.75;18.50;;;;;;;;5040568;28;46952;-81
2021/07/23 04:20:33;;;;;;;;;25.75;21.50;;;;;;;;5060951;28;46877;-81
2021/07/23 04:22:58;;;;;;;;;18.75;18.75;;;;;;;;5063546;28;47700;-81
2021/07/23 04:25:23;;;;;;;;;16.25;16.25;;;;;;;;5059133;28;46954;-81
2021/07/23 04:27:49;;;;;;;;;19.50;17.25;;;;;;;;5040744;28;47149;-83
2021/07/23 04:30:16;;;;;;;;;17.25;16.75;;;;;;;;5059514;28;47068;-83
2021/07/23 04:32:41;;;;;;;;;31.00;25.00;;;;;;;;5059163;27;47973;-83
2021/07/23 04:35:07;;;;;;;;;23.50;18.50;;;;;;;;5053095;28;47004;-83
2021/07/23 04:37:32;;;;;;;;;22.75;20.00;;;;;;;;5058731;28;46795;-83
2021/07/23 04:39:57;;;;;;;;;19.25;18.00;;;;;;;;5059069;28;46779;-83
2021/07/23 04:42:23;;;;;;;;;17.00;15.00;;;;;;;;5058379;28;46977;-82
2021/07/23 04:44:48;;;;;;;;;21.75;18.25;;;;;;;;5058850;28;46844;-83
2021/07/23 04:47:14;;;;;;;;;21.00;21.00;;;;;;;;5058562;28;46858;-83
2021/07/23 04:49:39;;;;;;;;;21.50;20.00;;;;;;;;5040441;28;47253;-83
2021/07/23 04:52:04;;;;;;;;;23.75;23.00;;;;;;;;5058492;28;46929;-83
2021/07/23 04:54:29;;;;;;;;;23.00;18.50;;;;;;;;5058678;28;46850;-83
2021/07/23 04:56:55;;;;;;;;;21.25;19.25;;;;;;;;5040312;28;46935;-83
2021/07/23 04:59:21;;;;;;;;;25.25;18.00;;;;;;;;5058950;28;46987;-83
2021/07/23 05:01:46;;;;;;;;;22.00;20.25;;;;;;;;5058319;28;46971;-83
2021/07/23 05:04:12;;;;;;;;;20.00;18.75;;;;;;;;5058088;28;47015;-83
2021/07/23 05:06:41;;;;;;;;;18.25;16.75;;;;;;;;5058463;28;47032;-83
2021/07/23 05:09:06;;;;;;;;;25.50;21.00;;;;;;;;5047416;28;47058;-82
2021/07/23 05:11:32;;;;;;;;;20.75;18.50;;;;;;;;5078365;28;46967;-82
2021/07/23 05:13:59;;;;;;;;;21.00;18.50;;;;;;;;5078352;28;46869;-82
2021/07/23 05:16:24;;;;;;;;;19.50;19.50;;;;;;;;5078563;28;47007;-82
2021/07/23 05:18:50;;;;;;;;;27.00;17.25;;;;;;;;5078437;28;47025;-82
2021/07/23 05:21:15;;;;;;;;;19.75;16.50;;;;;;;;5059945;28;48376;-83
2021/07/23 05:23:42;;;;;;;;;19.50;18.50;;;;;;;;5058511;28;46798;-83
2021/07/23 05:26:07;;;;;;;;;23.50;21.25;;;;;;;;5058388;28;46976;-83
2021/07/23 05:28:33;;;;;;;;;21.25;19.50;;;;;;;;5058166;28;46984;-83
2021/07/23 05:30:59;;;;;;;;;26.00;21.50;;;;;;;;5058024;28;46999;-83
2021/07/23 05:33:25;;;;;;;;;21.75;19.00;;;;;;;;5064646;27;46923;-83
2021/07/23 05:35:50;;;;;;;;;29.75;25.25;;;;;;;;5064435;28;46991;-83
2021/07/23 05:38:15;;;;;;;;;17.00;15.25;;;;;;;;5058119;28;47011;-83
2021/07/23 05:40:43;;;;;;;;;20.75;16.25;;;;;;;;5057845;28;47571;-83
2021/07/23 05:43:09;;;;;;;;;25.25;19.00;;;;;;;;5056994;28;46871;-83
2021/07/23 05:45:37;;;;;;;;;20.50;20.25;;;;;;;;5057838;28;46884;-83
2021/07/23 05:48:03;;;;;;;;;22.75;17.75;;;;;;;;5057828;28;46976;-83
2021/07/23 05:50:28;;;;;;;;;20.25;16.25;;;;;;;;5057708;28;46917;-83
2021/07/23 05:52:55;;;;;;;;;20.50;20.50;;;;;;;;5039623;28;46885;-83
2021/07/23 05:55:21;;;;;;;;;26.75;24.75;;;;;;;;5057757;28;47024;-83
2021/07/23 05:57:46;;;;;;;;;22.50;20.25;;;;;;;;5057890;28;47672;-83
2021/07/23 06:00:12;;;;;;;;;19.25;17.00;;;;;;;;5057664;28;47880;-83
2021/07/23 06:02:37;;;;;;;;;27.25;20.50;;;;;;;;5057426;28;46842;-83
2021/07/23 06:05:03;;;;;;;;;24.25;19.25;;;;;;;;5039212;28;46952;-83
2021/07/23 06:07:28;;;;;;;;;23.00;21.75;;;;;;;;5057857;28;46795;-82
2021/07/23 06:09:53;;;;;;;;;25.50;24.50;;;;;;;;5057407;28;47019;-83
2021/07/23 06:12:19;;;;;;;;;24.00;21.00;;;;;;;;5045855;28;47073;-83
2021/07/23 06:14:44;;;;;;;;;21.00;19.25;;;;;;;;5077807;28;46821;-83
2021/07/23 06:17:09;;;;;;;;;29.25;26.50;;;;;;;;5078008;28;47191;-83
2021/07/23 06:19:36;;;;;;;;;20.50;18.00;;;;;;;;5077421;28;46959;-83
2021/07/23 06:22:02;;;;;;;;;26.75;21.75;;;;;;;;5070649;28;47116;-83
2021/07/23 06:24:27;;;;;;;;;18.25;16.25;;;;;;;;5039051;28;46875;-82
2021/07/23 06:26:52;;;;;;;;;26.00;21.50;;;;;;;;5057726;28;47006;-83
2021/07/23 06:29:18;;;;;;;;;20.50;18.75;;;;;;;;5057036;28;48032;-83
2021/07/23 06:31:43;;;;;;;;;19.75;18.25;;;;;;;;5057356;28;47019;-83
2021/07/23 06:34:09;;;;;;;;;28.25;27.75;;;;;;;;5070262;27;47016;-83
2021/07/23 06:36:35;;;;;;;;;25.25;23.50;;;;;;;;5057663;28;47162;-82
2021/07/23 06:39:00;;;;;;;;;21.75;19.00;;;;;;;;5056911;28;46893;-82
2021/07/23 06:41:25;;;;;;;;;19.50;18.00;;;;;;;;5057130;28;46850;-82
2021/07/23 06:43:51;;;;;;;;;19.75;17.50;;;;;;;;5056945;28;47003;-82
2021/07/23 06:46:16;;;;;;;;;21.50;19.75;;;;;;;;5057055;28;46968;-82
2021/07/23 06:48:42;;;;;;;;;21.75;18.25;;;;;;;;5056726;28;47452;-82
2021/07/23 06:51:07;;;;;;;;;20.00;17.25;;;;;;;;5056807;28;46735;-82
2021/07/23 06:53:32;;;;;;;;;15.00;13.25;;;;;;;;5057112;28;47087;-82
2021/07/23 06:55:58;;;;;;;;;18.75;15.25;;;;;;;;5059555;28;46885;-83
2021/07/23 06:58:23;;;;;;;;;21.75;20.00;;;;;;;;5060164;28;46893;-83
2021/07/23 07:00:48;;;;;;;;;18.25;16.00;;;;;;;;5060150;28;46715;-83
2021/07/23 07:03:14;;;;;;;;;12.50;11.50;;;;;;;;5060218;28;46856;-82
2021/07/23 07:05:39;;;;;;;;;15.25;14.00;;;;;;;;5060350;28;47147;-82
2021/07/23 07:08:05;;;;;;;;;14.00;14.00;;;;;;;;5060219;28;47681;-82
2021/07/23 07:10:30;;;;;;;;;16.00;15.00;;;;;;;;5041819;28;46791;-82
2021/07/23 07:12:56;;;;;;;;;20.50;18.00;;;;;;;;5060046;28;46839;-82
2021/07/23 07:15:21;;;;;;;;;16.25;16.00;;;;;;;;5060360;28;46793;-82
2021/07/23 07:17:46;;;;;;;;;17.25;16.75;;;;;;;;5059915;28;47093;-82
2021/07/23 07:20:12;;;;;;;;;15.50;15.00;;;;;;;;5041840;28;47055;-82
2021/07/23 07:22:37;;;;;;;;;16.50;15.50;;;;;;;;5067632;28;47062;-82
2021/07/23 07:25:03;;;;;;;;;19.50;16.00;;;;;;;;5060170;28;46996;-82
2021/07/23 07:27:28;;;;;;;;;15.50;15.25;;;;;;;;5059910;28;46971;-82
2021/07/23 07:29:53;;;;;;;;;18.00;16.00;;;;;;;;5059759;28;46863;-82
2021/07/23 07:32:19;;;;;;;;;18.00;16.00;;;;;;;;5041454;28;47016;-82
2021/07/23 07:34:44;;;;;;;;;28.50;22.50;;;;;;;;5073345;27;47383;-82
2021/07/23 07:37:09;;;;;;;;;25.50;16.75;;;;;;;;5059869;28;46991;-82
2021/07/23 07:39:34;;;;;;;;;16.00;16.00;;;;;;;;5059718;28;47075;-82
2021/07/23 07:42:02;;;;;;;;;16.00;15.00;;;;;;;;5059862;28;46933;-82
2021/07/23 07:44:27;;;;;;;;;19.50;17.50;;;;;;;;5059574;28;47078;-82
2021/07/23 07:46:53;;;;;;;;;22.00;19.75;;;;;;;;5059748;28;46943;-83
2021/07/23 07:49:19;;;;;;;;;18.25;16.50;;;;;;;;5059253;28;46830;-83
2021/07/23 07:51:45;;;;;;;;;17.75;16.50;;;;;;;;5041379;28;46894;-84
2021/07/23 07:54:12;;;;;;;;;16.00;16.00;;;;;;;;5059619;28;46812;-83
2021/07/23 07:56:37;;;;;;;;;16.75;14.25;;;;;;;;5059678;28;47249;-83
2021/07/23 07:59:03;;;;;;;;;20.00;18.25;;;;;;;;5059212;28;47194;-83
2021/07/23 08:01:28;;;;;;;;;16.50;16.00;;;;;;;;5059612;28;47015;-83
2021/07/23 08:03:53;;;;;;;;;23.00;19.25;;;;;;;;5059254;28;47235;-83
2021/07/23 08:06:23;;;;;;;;;18.75;16.50;;;;;;;;5058585;28;47070;-83
2021/07/23 08:08:50;;;;;;;;;17.50;15.00;;;;;;;;5041013;28;46875;-83
2021/07/23 08:11:15;;;;;;;;;21.00;18.25;;;;;;;;5040792;28;46916;-83
2021/07/23 08:13:41;;;;;;;;;18.00;14.50;;;;;;;;5059306;28;46884;-83
2021/07/23 08:16:06;;;;;;;;;21.00;21.00;;;;;;;;5059282;28;47880;-83
2021/07/23 08:18:33;;;;;;;;;21.25;19.75;;;;;;;;5040600;28;46948;-83
2021/07/23 08:21:01;;;;;;;;;16.50;14.50;;;;;;;;5064576;28;46991;-83
2021/07/23 08:23:26;;;;;;;;;16.25;16.25;;;;;;;;5060048;28;47075;-83
2021/07/23 08:25:52;;;;;;;;;17.00;14.25;;;;;;;;5059015;28;47640;-83
2021/07/23 08:28:17;;;;;;;;;20.75;17.75;;;;;;;;5058797;28;46946;-83
2021/07/23 08:30:43;;;;;;;;;14.75;14.25;;;;;;;;5058970;28;47039;-83
2021/07/23 08:33:08;;;;;;;;;20.75;18.50;;;;;;;;5063458;28;47028;-83
2021/07/23 08:35:35;;;;;;;;;16.00;15.25;;;;;;;;5067613;28;46973;-83
2021/07/23 08:38:00;;;;;;;;;25.25;20.75;;;;;;;;5058703;28;46794;-83
2021/07/23 08:40:25;;;;;;;;;19.25;17.50;;;;;;;;5040873;28;46810;-83
2021/07/23 08:42:51;;;;;;;;;15.50;14.25;;;;;;;;5058730;28;46774;-83
2021/07/23 08:45:16;;;;;;;;;14.50;14.25;;;;;;;;5058574;28;47605;-83
2021/07/23 08:47:41;;;;;;;;;21.00;15.25;;;;;;;;5040179;28;46948;-83
2021/07/23 08:50:07;;;;;;;;;13.50;12.25;;;;;;;;5058615;28;46989;-83
2021/07/23 08:52:38;;;;;;;;;18.25;15.50;;;;;;;;5058699;28;47041;-83
2021/07/23 08:55:05;;;;;;;;;17.75;16.00;;;;;;;;5058496;28;47029;-83
2021/07/23 08:57:30;;;;;;;;;18.75;17.50;;;;;;;;5058401;28;47004;-83
2021/07/23 08:59:55;;;;;;;;;15.75;15.25;;;;;;;;5058686;28;46997;-83
2021/07/23 09:02:21;;;;;;;;;23.00;19.25;;;;;;;;5058300;28;46786;-83
2021/07/23 09:04:46;;;;;;;;;19.00;12.75;;;;;;;;5058376;28;47598;-83
2021/07/23 09:07:15;;;;;;;;;15.75;13.75;;;;;;;;5058384;28;46779;-83
2021/07/23 09:09:43;;;;;;;;;17.00;12.00;;;;;;;;5040200;28;47112;-83
2021/07/23 09:12:08;;;;;;;;;17.75;15.75;;;;;;;;5058228;28;46825;-83
2021/07/23 09:14:34;;;;;;;;;18.75;18.00;;;;;;;;5057999;28;48168;-83
2021/07/23 09:16:59;;;;;;;;;15.00;14.00;;;;;;;;5058152;28;46740;-83
2021/07/23 09:19:24;;;;;;;;;15.75;14.25;;;;;;;;5056908;28;46802;-83
2021/07/23 09:21:56;;;;;;;;;19.25;17.25;;;;;;;;5046972;28;47235;-83
2021/07/23 09:24:23;;;;;;;;;16.00;16.00;;;;;;;;5057974;28;47968;-83
2021/07/23 09:26:48;;;;;;;;;22.00;17.75;;;;;;;;5058065;28;46940;-83
2021/07/23 09:29:14;;;;;;;;;13.25;12.00;;;;;;;;5058007;28;47025;-83
2021/07/23 09:31:39;;;;;;;;;13.00;12.00;;;;;;;;5058208;28;47139;-83
2021/07/23 09:34:05;;;;;;;;;15.25;13.75;;;;;;;;5070450;28;48262;-83
2021/07/23 09:36:31;;;;;;;;;16.75;14.25;;;;;;;;5058568;28;46763;-83
2021/07/23 09:39:03;;;;;;;;;17.00;14.50;;;;;;;;5039921;28;46983;-83
2021/07/23 09:41:29;;;;;;;;;18.75;17.75;;;;;;;;5058188;28;47191;-83
2021/07/23 09:44:00;;;;;;;;;16.00;14.25;;;;;;;;5057582;28;46822;-83
2021/07/23 09:46:26;;;;;;;;;16.75;16.75;;;;;;;;5039683;28;46956;-83
2021/07/23 09:48:52;;;;;;;;;18.25;18.00;;;;;;;;5057710;28;46928;-83
2021/07/23 09:51:19;;;;;;;;;18.50;16.00;;;;;;;;5058097;28;46986;-83
2021/07/23 09:53:44;;;;;;;;;12.00;11.50;;;;;;;;5057663;28;47059;-84
2021/07/23 09:56:10;;;;;;;;;16.00;16.00;;;;;;;;5057729;28;46893;-84
2021/07/23 09:58:42;;;;;;;;;16.00;14.25;;;;;;;;5057603;28;46929;-83
2021/07/23 10:01:10;;;;;;;;;20.50;17.75;;;;;;;;5039715;28;47371;-83
2021/07/23 10:03:46;;;;;;;;;16.25;15.00;;;;;;;;5057290;28;46984;-83
2021/07/23 10:06:14;;;;;;;;;14.00;13.50;;;;;;;;5057671;28;46913;-83
2021/07/23 10:08:40;;;;;;;;;16.50;15.50;;;;;;;;5057596;28;47106;-83
2021/07/23 10:11:07;;;;;;;;;16.50;14.50;;;;;;;;5057666;28;47068;-83
2021/07/23 10:13:35;;;;;;;;;13.75;13.50;;;;;;;;5057250;28;46826;-84
2021/07/23 10:16:00;;;;;;;;;13.00;13.00;;;;;;;;5057380;28;47020;-83
2021/07/23 10:18:26;;;;;;;;;12.25;9.00;;;;;;;;5038790;28;46779;-83
2021/07/23 10:20:53;;;;;;;;;17.50;16.50;;;;;;;;5061910;28;46821;-83
2021/07/23 10:23:19;;;;;;;;;20.50;18.75;;;;;;;;5041541;28;49545;-84
2021/07/23 10:25:46;;;;;;;;;16.00;16.00;;;;;;;;5057316;28;46970;-83
2021/07/23 10:28:12;;;;;;;;;19.00;17.25;;;;;;;;5057349;28;47042;-83
2021/07/23 10:30:39;;;;;;;;;15.50;14.25;;;;;;;;5059735;28;46762;-83
2021/07/23 10:33:05;;;;;;;;;17.50;14.50;;;;;;;;5063271;28;47117;-83
2021/07/23 10:35:31;;;;;;;;;12.25;11.00;;;;;;;;5069969;28;47305;-83
2021/07/23 10:37:57;;;;;;;;;12.50;12.00;;;;;;;;5060742;28;46849;-84
2021/07/23 10:40:31;;;;;;;;;12.75;11.75;;;;;;;;5042659;28;46975;-84
2021/07/23 10:42:57;;;;;;;;;12.75;12.50;;;;;;;;5060393;28;46919;-83
2021/07/23 10:45:38;;;;;;;;;13.75;12.50;;;;;;;;5060713;28;46956;-83
2021/07/23 10:48:03;;;;;;;;;14.75;13.00;;;;;;;;5068229;28;46909;-83
2021/07/23 10:50:29;;;;;;;;;13.50;11.50;;;;;;;;5080902;28;46915;-83
2021/07/23 10:52:54;;;;;;;;;13.75;12.25;;;;;;;;5080921;28;47954;-83
2021/07/23 10:55:24;;;;;;;;;11.00;8.50;;;;;;;;5062291;28;47040;-83
2021/07/23 10:58:04;;;;;;;;;11.50;11.25;;;;;;;;5080884;28;47080;-83
2021/07/23 11:00:50;;;;;;;;;11.50;11.00;;;;;;;;5062443;28;47079;-83
2021/07/23 11:03:58;;;;;;;;;13.75;12.50;;;;;;;;5080338;28;46953;-83
2021/07/23 11:06:25;;;;;;;;;12.25;12.25;;;;;;;;5025722;28;47173;-83
2021/07/23 11:08:50;;;;;;;;;14.00;13.50;;;;;;;;5053621;28;47093;-83
2021/07/23 11:11:16;;;;;;;;;13.25;13.25;;;;;;;;5041918;28;47339;-83
2021/07/23 11:13:42;;;;;;;;;12.50;11.50;;;;;;;;5059886;28;47026;-83
2021/07/23 11:16:11;;;;;;;;;9.50;9.50;;;;;;;;5060168;28;47044;-83
2021/07/23 11:18:36;;;;;;;;;14.00;12.00;;;;;;;;5059679;28;47214;-83
2021/07/23 11:21:02;;;;;;;;;16.50;10.75;;;;;;;;5065845;28;46743;-83
2021/07/23 11:23:31;;;;;;;;;12.00;10.25;;;;;;;;5060816;28;47631;-83
2021/07/23 11:25:58;;;;;;;;;11.50;11.00;;;;;;;;5059858;28;46929;-83
2021/07/23 11:28:24;;;;;;;;;13.75;11.75;;;;;;;;5041642;28;46789;-83
2021/07/23 11:30:50;;;;;;;;;13.50;13.25;;;;;;;;5060100;28;47008;-83
2021/07/23 11:33:15;;;;;;;;;12.75;11.00;;;;;;;;5064970;27;47639;-83
2021/07/23 11:35:41;;;;;;;;;15.50;12.50;;;;;;;;5067527;28;46806;-83
2021/07/23 11:38:11;;;;;;;;;10.75;10.75;;;;;;;;5041472;28;46903;-83
2021/07/23 11:40:37;;;;;;;;;13.25;11.25;;;;;;;;5059736;28;47332;-83
2021/07/23 11:43:04;;;;;;;;;12.50;12.25;;;;;;;;5040423;28;47146;-83
2021/07/23 11:45:31;;;;;;;;;13.25;11.50;;;;;;;;5059585;28;47002;-81
2021/07/23 11:47:57;;;;;;;;;10.25;8.75;;;;;;;;5059378;28;47083;-81
2021/07/23 11:50:24;;;;;;;;;14.00;11.50;;;;;;;;5041426;28;46980;-81
2021/07/23 11:52:58;;;;;;;;;11.50;11.25;;;;;;;;5041128;28;47041;-81
2021/07/23 11:55:23;;;;;;;;;9.50;8.75;;;;;;;;5059304;28;46953;-81
2021/07/23 11:57:48;;;;;;;;;12.75;12.00;;;;;;;;5059509;28;47047;-81
2021/07/23 12:00:19;;;;;;;;;10.50;10.25;;;;;;;;5059617;28;47215;-81
2021/07/23 12:02:45;;;;;;;;;12.25;9.00;;;;;;;;5066233;28;47003;-81
2021/07/23 12:05:12;;;;;;;;;11.25;10.25;;;;;;;;5061018;28;46985;-81
2021/07/23 12:07:38;;;;;;;;;10.50;10.00;;;;;;;;5079666;28;46935;-81
2021/07/23 12:10:05;;;;;;;;;14.00;12.00;;;;;;;;5079522;28;47025;-81
2021/07/23 12:12:31;;;;;;;;;13.25;10.75;;;;;;;;5079218;28;47181;-82
2021/07/23 12:15:07;;;;;;;;;11.00;11.00;;;;;;;;5079329;28;46955;-82
2021/07/23 12:17:33;;;;;;;;;14.25;12.00;;;;;;;;5060968;28;46951;-83
2021/07/23 12:19:58;;;;;;;;;10.25;8.50;;;;;;;;5061178;28;46832;-82
2021/07/23 12:22:24;;;;;;;;;13.00;12.75;;;;;;;;5070547;28;47040;-82
2021/07/23 12:24:49;;;;;;;;;12.50;12.00;;;;;;;;5058875;28;47302;-82
2021/07/23 12:27:19;;;;;;;;;11.75;10.50;;;;;;;;5059099;28;46876;-82
2021/07/23 12:29:45;;;;;;;;;9.00;9.00;;;;;;;;5040787;28;46978;-82
2021/07/23 12:32:22;;;;;;;;;12.50;11.00;;;;;;;;5058648;28;47360;-82
2021/07/23 12:34:57;;;;;;;;;13.00;11.00;;;;;;;;5072250;28;46808;-82
2021/07/23 12:37:23;;;;;;;;;12.25;11.00;;;;;;;;5058948;28;46953;-82
2021/07/23 12:39:49;;;;;;;;;13.75;12.00;;;;;;;;5058816;28;47077;-82
2021/07/23 12:42:20;;;;;;;;;13.00;11.75;;;;;;;;5058587;28;47825;-82
2021/07/23 12:44:46;;;;;;;;;10.25;9.00;;;;;;;;5065796;28;47003;-82
2021/07/23 12:47:22;;;;;;;;;10.25;10.25;;;;;;;;5078619;28;46991;-82
2021/07/23 12:49:48;;;;;;;;;10.25;9.75;;;;;;;;5079148;28;47158;-82
2021/07/23 12:52:14;;;;;;;;;13.25;10.25;;;;;;;;5078416;28;46948;-82
2021/07/23 12:54:44;;;;;;;;;12.25;11.75;;;;;;;;5078950;28;46865;-84
2021/07/23 12:57:28;;;;;;;;;9.75;9.75;;;;;;;;5078766;28;47074;-85
2021/07/23 12:59:53;;;;;;;;;15.25;13.00;;;;;;;;5078985;28;46980;-84
2021/07/23 13:02:19;;;;;;;;;10.75;10.25;;;;;;;;5078229;28;46991;-84
2021/07/23 13:04:45;;;;;;;;;11.00;10.00;;;;;;;;5078815;28;46987;-84
2021/07/23 13:07:14;;;;;;;;;13.25;11.50;;;;;;;;5078659;28;47008;-85
2021/07/23 13:09:43;;;;;;;;;11.25;11.25;;;;;;;;5078904;28;46749;-85
2021/07/23 13:12:09;;;;;;;;;11.00;11.00;;;;;;;;5078214;28;47144;-85
2021/07/23 13:14:34;;;;;;;;;11.00;11.00;;;;;;;;5078644;28;47115;-85
2021/07/23 13:17:01;;;;;;;;;11.75;11.75;;;;;;;;5078206;28;47047;-84
2021/07/23 13:19:26;;;;;;;;;11.50;11.50;;;;;;;;5078790;28;46952;-85
2021/07/23 13:21:52;;;;;;;;;17.25;14.00;;;;;;;;5073307;28;47030;-84
2021/07/23 13:24:17;;;;;;;;;12.25;11.75;;;;;;;;5058169;28;47020;-85
2021/07/23 13:26:42;;;;;;;;;13.25;13.00;;;;;;;;5058021;28;46728;-84
2021/07/23 13:29:08;;;;;;;;;11.25;9.25;;;;;;;;5058320;28;47708;-85
2021/07/23 13:31:34;;;;;;;;;11.50;10.25;;;;;;;;5057887;28;47512;-85
2021/07/23 13:33:59;;;;;;;;;14.75;13.25;;;;;;;;5069794;27;46899;-85
2021/07/23 13:36:30;;;;;;;;;11.00;10.00;;;;;;;;5059471;28;47038;-84
2021/07/23 13:39:02;;;;;;;;;14.00;13.75;;;;;;;;5058153;28;46873;-85
2021/07/23 13:41:27;;;;;;;;;12.25;11.50;;;;;;;;5046329;28;47095;-85
2021/07/23 13:43:54;;;;;;;;;14.00;13.00;;;;;;;;5077921;28;46909;-85
2021/07/23 13:46:20;;;;;;;;;14.75;13.75;;;;;;;;5078358;28;47014;-85
2021/07/23 13:48:46;;;;;;;;;16.00;14.50;;;;;;;;5078052;28;46963;-85
2021/07/23 13:51:12;;;;;;;;;16.50;14.75;;;;;;;;5059718;28;48776;-85
2021/07/23 13:53:37;;;;;;;;;14.25;12.25;;;;;;;;5077923;28;46858;-85
2021/07/23 13:56:03;;;;;;;;;16.50;15.25;;;;;;;;5078218;28;46896;-83
2021/07/23 13:58:28;;;;;;;;;12.50;11.75;;;;;;;;5077964;28;46770;-83
2021/07/23 14:00:53;;;;;;;;;14.75;14.00;;;;;;;;5077868;28;47628;-83
2021/07/23 14:03:19;;;;;;;;;14.25;13.00;;;;;;;;5077545;28;46853;-83
2021/07/23 14:05:44;;;;;;;;;15.00;14.25;;;;;;;;5080308;28;46862;-83
2021/07/23 14:08:09;;;;;;;;;15.00;13.00;;;;;;;;5081789;28;46765;-83
2021/07/23 14:10:35;;;;;;;;;12.00;11.25;;;;;;;;5081151;28;47032;-83
2021/07/23 14:13:00;;;;;;;;;14.75;11.50;;;;;;;;5080923;28;47087;-83